Time;durP1;ratioP1;P1;durP2;ratioP2;P2;SDS_P1;SDS_P2;PMS_P1;PMS_P2;Temp;Humidity;BMP_temperature;BMP_pressure;BME280_temperature;BME280_humidity;BME280_pressure;Samples;Min_cycle;Max_cycle;Signal;HPM_P1;HPM_P2
2021/12/28 00:00:08;;;;;;;21.00;11.27;;;1.10;99.90;;;;;;5093302;28;20505;-84
2021/12/28 00:02:34;;;;;;;21.70;12.73;;;1.10;99.90;;;;;;5074964;28;20447;-84
2021/12/28 00:05:00;;;;;;;19.30;13.50;;;1.10;99.90;;;;;;5093318;28;20449;-84
2021/12/28 00:07:25;;;;;;;19.53;12.93;;;1.20;99.90;;;;;;5093593;28;20168;-84
2021/12/28 00:09:51;;;;;;;15.70;10.63;;;1.20;99.90;;;;;;5087080;28;20816;-85
2021/12/28 00:12:17;;;;;;;22.90;13.57;;;1.10;99.90;;;;;;5113787;28;20672;-83
2021/12/28 00:14:50;;;;;;;23.40;13.27;;;1.20;99.90;;;;;;5095176;28;20181;-84
2021/12/28 00:20:01;;;;;;;25.57;12.77;;;1.20;99.90;;;;;;5113630;28;20522;-84
2021/12/28 00:22:26;;;;;;;25.17;12.53;;;1.20;99.90;;;;;;5094689;28;20416;-85
2021/12/28 00:24:52;;;;;;;24.93;14.80;;;1.10;99.90;;;;;;5113626;28;20509;-85
2021/12/28 00:27:18;;;;;;;24.60;12.80;;;1.10;99.90;;;;;;5095267;28;20178;-84
2021/12/28 00:29:43;;;;;;;19.23;11.70;;;1.10;99.90;;;;;;5094761;28;20174;-85
2021/12/28 00:32:09;;;;;;;15.53;10.83;;;1.10;99.90;;;;;;5113578;28;20245;-84
2021/12/28 00:34:35;;;;;;;18.37;12.20;;;1.20;99.90;;;;;;5113455;28;20160;-84
2021/12/28 00:37:01;;;;;;;22.80;13.70;;;1.20;99.90;;;;;;5090349;28;20184;-84
2021/12/28 00:39:27;;;;;;;25.60;13.40;;;1.20;99.90;;;;;;5092856;28;21045;-85
2021/12/28 00:41:56;;;;;;;18.47;12.63;;;1.20;99.90;;;;;;5092924;28;20465;-84
2021/12/28 00:44:21;;;;;;;23.93;13.07;;;1.20;99.90;;;;;;5092355;28;20406;-84
2021/12/28 00:46:47;;;;;;;19.03;11.13;;;1.20;99.90;;;;;;5095656;28;21630;-84
2021/12/28 00:49:12;;;;;;;18.20;12.87;;;1.20;99.90;;;;;;5113201;28;20509;-85
2021/12/28 00:51:38;;;;;;;22.07;12.90;;;1.20;99.90;;;;;;5113253;28;20209;-84
2021/12/28 00:54:04;;;;;;;16.83;11.50;;;1.20;99.90;;;;;;5095056;28;20174;-85
2021/12/28 00:56:29;;;;;;;19.60;11.63;;;1.20;99.90;;;;;;5094642;28;20182;-86
2021/12/28 00:58:55;;;;;;;20.57;12.37;;;1.20;99.90;;;;;;5094739;28;20250;-84
2021/12/28 01:01:21;;;;;;;20.13;12.70;;;1.20;99.90;;;;;;5111227;28;20560;-84
2021/12/28 01:03:47;;;;;;;21.00;14.30;;;1.20;99.90;;;;;;5113099;28;20236;-85
2021/12/28 01:06:12;;;;;;;22.33;14.40;;;1.20;99.90;;;;;;5113134;28;20412;-85
2021/12/28 01:08:38;;;;;;;18.60;13.33;;;1.20;99.90;;;;;;5112977;28;20172;-84
2021/12/28 01:11:05;;;;;;;19.07;13.53;;;1.20;99.90;;;;;;5090119;28;20185;-82
2021/12/28 01:13:31;;;;;;;19.20;12.10;;;1.20;99.90;;;;;;5113034;28;20179;-84
2021/12/28 01:15:57;;;;;;;16.40;11.70;;;1.30;99.90;;;;;;5079164;28;20422;-84
2021/12/28 01:18:23;;;;;;;19.57;12.50;;;1.30;99.90;;;;;;5092624;28;20510;-85
2021/12/28 01:20:49;;;;;;;22.87;13.30;;;1.30;99.90;;;;;;5104201;28;20217;-85
2021/12/28 01:23:16;;;;;;;18.93;12.43;;;1.30;99.90;;;;;;5085655;28;20449;-84
2021/12/28 01:25:41;;;;;;;24.10;13.80;;;1.30;99.90;;;;;;5099031;28;20176;-84
2021/12/28 01:28:08;;;;;;;23.20;14.00;;;1.30;99.90;;;;;;5104676;28;20766;-84
2021/12/28 01:30:34;;;;;;;28.50;14.90;;;1.30;99.90;;;;;;5116641;28;20558;-84
2021/12/28 01:33:01;;;;;;;21.53;11.80;;;1.30;99.90;;;;;;5115162;28;20439;-85
2021/12/28 01:35:28;;;;;;;20.27;13.73;;;1.30;99.90;;;;;;5098654;28;20571;-84
2021/12/28 01:37:55;;;;;;;18.07;11.13;;;1.40;99.90;;;;;;5116529;28;20455;-85
2021/12/28 01:40:24;;;;;;;15.77;10.10;;;1.40;99.90;;;;;;5115224;28;20475;-85
2021/12/28 01:43:14;;;;;;;17.17;11.17;;;1.40;99.90;;;;;;5116678;28;20421;-84
2021/12/28 01:45:52;;;;;;;26.70;13.80;;;1.40;99.90;;;;;;5101685;28;20430;-83
2021/12/28 01:48:18;;;;;;;21.90;13.60;;;1.40;99.90;;;;;;5096034;28;20412;-83
2021/12/28 01:50:44;;;;;;;21.57;13.80;;;1.40;99.90;;;;;;5096017;28;20914;-83
2021/12/28 01:53:11;;;;;;;11.37;7.50;;;1.40;99.90;;;;;;5096056;28;20555;-83
2021/12/28 01:55:39;;;;;;;22.40;11.50;;;1.40;99.90;;;;;;5095985;28;20451;-83
2021/12/28 01:58:05;;;;;;;17.13;10.47;;;1.40;99.90;;;;;;5095875;28;20417;-83
2021/12/28 02:00:31;;;;;;;25.03;13.67;;;1.40;99.90;;;;;;5077233;28;20482;-83
2021/12/28 02:02:56;;;;;;;18.57;12.07;;;1.30;99.90;;;;;;5095883;28;20759;-84
2021/12/28 02:05:22;;;;;;;17.30;12.60;;;1.40;99.90;;;;;;5077678;28;20422;-84
2021/12/28 02:07:48;;;;;;;21.87;12.10;;;1.30;99.90;;;;;;5095867;28;20160;-84
2021/12/28 02:10:14;;;;;;;18.90;12.23;;;1.30;99.90;;;;;;5086321;28;20204;-84
2021/12/28 02:12:40;;;;;;;17.27;12.47;;;1.30;99.90;;;;;;5103067;28;20674;-84
2021/12/28 02:15:12;;;;;;;19.77;11.83;;;1.30;99.90;;;;;;5093635;28;20905;-84
2021/12/28 02:17:38;;;;;;;25.67;13.90;;;1.30;99.90;;;;;;5097723;28;20198;-84
2021/12/28 02:20:13;;;;;;;20.07;12.77;;;1.30;99.90;;;;;;5106510;28;20466;-84
2021/12/28 02:22:40;;;;;;;18.37;10.87;;;1.30;99.90;;;;;;5095338;28;20216;-85
2021/12/28 02:25:07;;;;;;;22.07;14.37;;;1.30;99.90;;;;;;5095449;28;21043;-85
2021/12/28 02:27:34;;;;;;;15.40;11.20;;;1.20;99.90;;;;;;5095477;28;20775;-85
2021/12/28 02:30:01;;;;;;;22.47;11.83;;;1.30;99.90;;;;;;5094932;28;20421;-84
2021/12/28 02:32:28;;;;;;;22.07;13.57;;;1.20;99.90;;;;;;5115131;28;20547;-84
2021/12/28 02:34:55;;;;;;;21.00;12.30;;;1.20;99.90;;;;;;5115676;28;20417;-85
2021/12/28 02:37:21;;;;;;;20.03;11.23;;;1.20;99.90;;;;;;5096894;28;20421;-84
2021/12/28 02:39:47;;;;;;;20.33;13.57;;;1.20;99.90;;;;;;5115633;28;20472;-83
2021/12/28 02:42:15;;;;;;;21.30;13.13;;;1.20;99.90;;;;;;5115445;28;20405;-84
2021/12/28 02:44:41;;;;;;;19.93;14.00;;;1.20;99.90;;;;;;5114385;28;20169;-84
2021/12/28 02:47:07;;;;;;;21.90;14.20;;;1.20;99.90;;;;;;5097301;28;20769;-84
2021/12/28 02:49:32;;;;;;;19.90;12.33;;;1.20;99.90;;;;;;5112248;28;20631;-84
2021/12/28 02:51:58;;;;;;;17.97;10.77;;;1.30;99.90;;;;;;5094805;28;20179;-84
2021/12/28 02:54:23;;;;;;;21.30;12.97;;;1.30;99.90;;;;;;5094873;28;20174;-83
2021/12/28 02:56:49;;;;;;;26.07;14.63;;;1.20;99.90;;;;;;5094699;28;20569;-85
2021/12/28 02:59:14;;;;;;;21.80;13.20;;;1.20;99.90;;;;;;5094264;28;20211;-84
2021/12/28 03:01:40;;;;;;;18.03;10.83;;;1.30;99.90;;;;;;5094892;28;20254;-84
2021/12/28 03:04:08;;;;;;;20.93;13.57;;;1.30;99.90;;;;;;5094632;28;20176;-84
2021/12/28 03:06:35;;;;;;;24.70;13.97;;;1.30;99.90;;;;;;5094566;28;20410;-84
2021/12/28 03:09:03;;;;;;;18.20;12.60;;;1.20;99.90;;;;;;5094318;28;20425;-84
2021/12/28 03:11:30;;;;;;;22.20;12.73;;;1.30;99.90;;;;;;5114183;28;20433;-81
2021/12/28 03:14:00;;;;;;;27.40;15.00;;;1.30;99.90;;;;;;5114969;28;20865;-80
2021/12/28 03:16:28;;;;;;;21.83;12.60;;;1.30;99.90;;;;;;5115188;28;20456;-82
2021/12/28 03:18:53;;;;;;;20.13;12.10;;;1.20;99.90;;;;;;5113844;28;20431;-84
2021/12/28 03:21:21;;;;;;;24.70;13.57;;;1.30;99.90;;;;;;5115361;28;20432;-82
2021/12/28 03:23:48;;;;;;;24.83;13.97;;;1.20;99.90;;;;;;5115178;28;20174;-83
2021/12/28 03:26:14;;;;;;;24.07;15.37;;;1.30;99.90;;;;;;5115013;28;20421;-83
2021/12/28 03:28:43;;;;;;;25.33;14.47;;;1.30;99.90;;;;;;5114729;28;20428;-82
2021/12/28 03:31:17;;;;;;;25.07;13.83;;;1.20;99.90;;;;;;5096620;28;20401;-83
2021/12/28 03:33:44;;;;;;;15.90;11.53;;;1.20;99.90;;;;;;5113717;28;20799;-83
2021/12/28 03:36:11;;;;;;;25.43;14.37;;;1.20;99.90;;;;;;5114981;28;20410;-82
2021/12/28 03:38:40;;;;;;;20.77;13.90;;;1.20;99.90;;;;;;5112511;28;20465;-84
2021/12/28 03:41:07;;;;;;;29.60;16.00;;;1.20;99.90;;;;;;5076184;28;20458;-83
2021/12/28 03:43:35;;;;;;;26.10;15.07;;;1.20;99.90;;;;;;5094080;28;20416;-82
2021/12/28 03:46:01;;;;;;;24.00;15.63;;;1.20;99.90;;;;;;5094288;28;20406;-82
2021/12/28 03:48:27;;;;;;;22.40;11.70;;;1.10;99.90;;;;;;5094232;28;20961;-82
2021/12/28 03:50:53;;;;;;;18.43;12.83;;;1.20;99.90;;;;;;5076063;28;20414;-82
2021/12/28 03:53:18;;;;;;;21.93;14.20;;;1.20;99.90;;;;;;5094218;28;20175;-82
2021/12/28 03:55:44;;;;;;;23.50;14.10;;;1.20;99.90;;;;;;5093311;28;20658;-83
2021/12/28 03:58:10;;;;;;;27.27;15.27;;;1.20;99.90;;;;;;5094665;28;20171;-82
2021/12/28 04:00:40;;;;;;;30.33;15.90;;;1.10;99.90;;;;;;5093850;28;20466;-82
2021/12/28 04:03:06;;;;;;;19.97;13.97;;;1.20;99.90;;;;;;5094056;28;20644;-84
2021/12/28 04:05:32;;;;;;;27.53;17.73;;;1.20;99.90;;;;;;5093906;28;20426;-82
2021/12/28 04:07:57;;;;;;;26.03;14.67;;;1.20;99.90;;;;;;5093680;28;20497;-82
2021/12/28 04:10:48;;;;;;;23.40;14.40;;;1.20;99.90;;;;;;5095080;28;20191;-82
2021/12/28 04:13:09;;;;;;;30.20;15.43;;;1.10;99.90;;;;;;5113070;28;20168;-85
2021/12/28 04:15:34;;;;;;;21.50;13.67;;;1.10;99.90;;;;;;5108206;28;20435;-83
2021/12/28 04:18:00;;;;;;;22.03;14.30;;;1.10;99.90;;;;;;5113740;28;20201;-83
2021/12/28 04:20:25;;;;;;;27.37;15.70;;;1.10;99.90;;;;;;5112048;28;20761;-83
2021/12/28 04:22:51;;;;;;;24.33;12.97;;;1.10;99.90;;;;;;5112038;28;20618;-83
2021/12/28 04:25:18;;;;;;;24.33;13.97;;;1.10;99.90;;;;;;5112824;28;20223;-83
2021/12/28 04:27:44;;;;;;;22.70;16.70;;;1.10;99.90;;;;;;5113872;28;20575;-85
2021/12/28 04:30:11;;;;;;;29.50;17.50;;;1.10;99.90;;;;;;5113596;28;21035;-83
2021/12/28 04:32:37;;;;;;;28.93;16.67;;;1.10;99.90;;;;;;5113839;28;20951;-83
2021/12/28 04:35:03;;;;;;;27.60;18.10;;;1.10;99.90;;;;;;5091540;28;20448;-82
2021/12/28 04:37:29;;;;;;;26.03;16.40;;;1.10;99.90;;;;;;5093250;28;20509;-82
2021/12/28 04:39:54;;;;;;;21.80;15.77;;;1.20;99.90;;;;;;5093369;28;20460;-82
2021/12/28 04:42:20;;;;;;;28.77;16.80;;;1.10;99.90;;;;;;5093362;28;20175;-82
2021/12/28 04:44:49;;;;;;;23.33;16.13;;;1.20;99.90;;;;;;5093088;28;20207;-81
2021/12/28 04:47:16;;;;;;;28.97;15.70;;;1.10;99.90;;;;;;5093276;28;20175;-82
2021/12/28 04:49:42;;;;;;;25.50;16.13;;;1.10;99.90;;;;;;5093349;28;20887;-83
2021/12/28 04:52:08;;;;;;;26.40;15.93;;;1.10;99.90;;;;;;5093214;28;20421;-82
2021/12/28 04:54:36;;;;;;;22.37;13.80;;;1.10;99.90;;;;;;5093242;28;20495;-82
2021/12/28 04:57:01;;;;;;;24.97;15.83;;;1.00;99.90;;;;;;5093233;28;20174;-81
2021/12/28 04:59:27;;;;;;;23.20;15.30;;;1.10;99.90;;;;;;5092708;28;21029;-82
2021/12/28 05:01:53;;;;;;;23.30;14.27;;;1.10;99.90;;;;;;5093233;28;20182;-82
2021/12/28 05:04:18;;;;;;;25.93;14.73;;;1.20;99.90;;;;;;5093125;28;20542;-81
2021/12/28 05:06:44;;;;;;;27.63;16.03;;;1.10;99.90;;;;;;5093140;28;20175;-82
2021/12/28 05:09:11;;;;;;;24.57;17.07;;;1.10;99.90;;;;;;5097185;28;20172;-82
2021/12/28 05:11:38;;;;;;;25.47;14.90;;;1.20;99.90;;;;;;5099133;28;20655;-82
2021/12/28 05:14:05;;;;;;;26.23;16.23;;;1.20;99.90;;;;;;5113840;28;20464;-81
2021/12/28 05:16:33;;;;;;;25.70;17.20;;;1.20;99.90;;;;;;5117656;28;20494;-81
2021/12/28 05:19:00;;;;;;;32.17;17.53;;;1.20;99.90;;;;;;5117592;28;20415;-82
2021/12/28 05:21:26;;;;;;;25.27;16.67;;;1.20;99.90;;;;;;5112749;28;20432;-82
2021/12/28 05:23:51;;;;;;;33.87;18.53;;;1.20;99.90;;;;;;5114621;28;20412;-82
2021/12/28 05:26:17;;;;;;;28.83;16.20;;;1.30;99.90;;;;;;5101216;28;20213;-83
2021/12/28 05:28:43;;;;;;;26.70;16.33;;;1.20;99.90;;;;;;5117031;28;20171;-81
2021/12/28 05:31:09;;;;;;;24.90;15.13;;;1.20;99.90;;;;;;5117382;28;20173;-82
2021/12/28 05:33:34;;;;;;;24.07;14.93;;;1.20;99.90;;;;;;5106436;28;20254;-83
2021/12/28 05:36:00;;;;;;;25.93;15.70;;;1.30;99.90;;;;;;5096777;28;20505;-81
2021/12/28 05:38:26;;;;;;;26.63;14.60;;;1.20;99.90;;;;;;5096565;28;20241;-82
2021/12/28 05:40:51;;;;;;;25.87;15.47;;;1.20;99.90;;;;;;5096801;28;20233;-82
2021/12/28 05:43:17;;;;;;;28.53;15.20;;;1.20;99.90;;;;;;5096397;28;20175;-82
2021/12/28 05:45:45;;;;;;;27.50;16.37;;;1.20;99.90;;;;;;5078568;28;20583;-82
2021/12/28 05:48:11;;;;;;;29.73;15.50;;;1.30;99.90;;;;;;5110260;28;20624;-82
2021/12/28 05:50:37;;;;;;;29.57;16.33;;;1.30;99.90;;;;;;5116992;28;20443;-82
2021/12/28 05:53:04;;;;;;;25.53;16.20;;;1.30;99.90;;;;;;5116938;28;20413;-82
2021/12/28 05:55:30;;;;;;;20.90;14.43;;;1.30;99.90;;;;;;5116905;28;20417;-83
2021/12/28 05:57:56;;;;;;;28.40;16.30;;;1.30;99.90;;;;;;5116509;28;20410;-82
2021/12/28 06:00:22;;;;;;;21.30;14.00;;;1.30;99.90;;;;;;5116685;28;20475;-82
2021/12/28 06:02:47;;;;;;;26.23;14.80;;;1.30;99.90;;;;;;5116732;28;20171;-82
2021/12/28 06:05:13;;;;;;;32.73;16.80;;;1.30;99.90;;;;;;5116635;28;20563;-83
2021/12/28 06:07:39;;;;;;;26.40;15.70;;;1.30;99.90;;;;;;5116603;28;20168;-83
2021/12/28 06:10:05;;;;;;;25.63;15.83;;;1.30;99.90;;;;;;5116631;28;20171;-82
2021/12/28 06:12:31;;;;;;;25.27;16.10;;;1.40;99.90;;;;;;5097907;28;20304;-82
2021/12/28 06:14:57;;;;;;;30.77;17.90;;;1.40;99.90;;;;;;5097345;28;20866;-82
2021/12/28 06:17:22;;;;;;;22.37;13.17;;;1.40;99.90;;;;;;5116480;28;20262;-82
2021/12/28 06:19:48;;;;;;;20.97;14.60;;;1.30;99.90;;;;;;5078824;28;20220;-83
2021/12/28 06:22:14;;;;;;;24.73;14.60;;;1.30;99.90;;;;;;5096018;28;20546;-83
2021/12/28 06:24:40;;;;;;;31.97;16.57;;;1.30;99.90;;;;;;5077784;28;20418;-82
2021/12/28 06:27:06;;;;;;;28.80;16.10;;;1.30;99.90;;;;;;5095875;28;20440;-82
2021/12/28 06:29:32;;;;;;;30.80;17.73;;;1.30;99.90;;;;;;5105580;28;20421;-80
2021/12/28 06:31:57;;;;;;;22.13;12.27;;;1.20;99.90;;;;;;5116198;28;20254;-82
2021/12/28 06:34:23;;;;;;;31.63;15.97;;;1.30;99.90;;;;;;5097908;28;20179;-82
2021/12/28 06:36:49;;;;;;;23.23;12.57;;;1.20;99.90;;;;;;5116066;28;20281;-82
2021/12/28 06:39:14;;;;;;;21.73;13.67;;;1.20;99.90;;;;;;5115811;28;20221;-81
2021/12/28 06:41:40;;;;;;;24.87;15.50;;;1.30;99.90;;;;;;5116039;28;20167;-82
2021/12/28 06:44:09;;;;;;;21.67;15.57;;;1.20;99.90;;;;;;5115586;28;20163;-81
2021/12/28 06:46:38;;;;;;;30.83;17.80;;;1.20;99.90;;;;;;5097590;28;20425;-82
2021/12/28 06:49:04;;;;;;;25.70;15.67;;;1.20;99.90;;;;;;5115746;28;20464;-81
2021/12/28 06:51:30;;;;;;;28.50;17.07;;;1.20;99.90;;;;;;5115813;28;20416;-81
2021/12/28 06:53:56;;;;;;;28.17;14.90;;;1.20;99.90;;;;;;5115810;28;20489;-81
2021/12/28 06:56:22;;;;;;;24.60;16.13;;;1.10;99.90;;;;;;5115749;28;20498;-82
2021/12/28 06:58:48;;;;;;;31.50;17.60;;;1.20;99.90;;;;;;5111337;28;20422;-82
2021/12/28 07:01:15;;;;;;;26.67;17.87;;;1.20;99.90;;;;;;5099050;28;20211;-82
2021/12/28 07:03:40;;;;;;;24.70;17.07;;;1.20;99.90;;;;;;5115592;28;20167;-82
2021/12/28 07:06:07;;;;;;;26.27;15.60;;;1.20;99.90;;;;;;5100223;28;20914;-82
2021/12/28 07:08:36;;;;;;;27.37;16.93;;;1.20;99.90;;;;;;5095033;28;20164;-82
2021/12/28 07:11:02;;;;;;;24.27;16.40;;;1.20;99.90;;;;;;5076956;28;20445;-82
2021/12/28 07:13:28;;;;;;;27.27;16.53;;;1.20;99.90;;;;;;5080406;28;20426;-84
2021/12/28 07:15:54;;;;;;;25.17;16.07;;;1.10;99.90;;;;;;5076697;28;20491;-82
2021/12/28 07:18:19;;;;;;;21.83;15.37;;;1.10;99.90;;;;;;5100305;28;20185;-82
2021/12/28 07:20:45;;;;;;;28.97;15.70;;;1.10;99.90;;;;;;5115159;28;20341;-82
2021/12/28 07:23:11;;;;;;;25.43;15.60;;;1.10;99.90;;;;;;5115183;28;20174;-82
2021/12/28 07:25:36;;;;;;;23.40;13.33;;;1.10;99.90;;;;;;5115138;28;20170;-82
2021/12/28 07:28:03;;;;;;;33.53;17.07;;;1.20;99.90;;;;;;5096346;28;20645;-82
2021/12/28 07:30:29;;;;;;;32.80;19.70;;;1.10;99.90;;;;;;5114799;28;20521;-82
2021/12/28 07:32:55;;;;;;;27.47;17.97;;;1.10;99.90;;;;;;5114959;28;20420;-84
2021/12/28 07:35:20;;;;;;;32.60;19.87;;;1.10;99.90;;;;;;5114935;28;20163;-84
2021/12/28 07:37:46;;;;;;;28.73;17.70;;;1.10;99.90;;;;;;5114772;28;20614;-82
2021/12/28 07:40:13;;;;;;;27.83;15.20;;;1.20;99.90;;;;;;5114734;28;20683;-83
2021/12/28 07:42:39;;;;;;;30.57;17.77;;;1.10;99.90;;;;;;5096474;28;20410;-81
2021/12/28 07:45:07;;;;;;;31.90;18.40;;;1.20;99.90;;;;;;5076403;28;20964;-83
2021/12/28 07:47:33;;;;;;;26.47;17.40;;;1.20;99.90;;;;;;5094114;28;20399;-82
2021/12/28 07:49:59;;;;;;;32.17;17.53;;;1.20;99.90;;;;;;5094214;28;20427;-82
2021/12/28 07:52:24;;;;;;;29.20;16.63;;;1.20;99.90;;;;;;5094116;28;20411;-82
2021/12/28 07:54:50;;;;;;;25.57;14.97;;;1.20;99.90;;;;;;5094122;28;20216;-82
2021/12/28 07:57:15;;;;;;;31.60;18.73;;;1.20;99.90;;;;;;5094077;28;20173;-81
2021/12/28 07:59:41;;;;;;;27.27;16.97;;;1.20;99.90;;;;;;5093573;28;20218;-81
2021/12/28 08:02:07;;;;;;;29.60;17.17;;;1.20;99.90;;;;;;5093960;28;20591;-82
2021/12/28 08:04:33;;;;;;;27.13;17.50;;;1.20;99.90;;;;;;5075865;28;20260;-82
2021/12/28 08:06:59;;;;;;;26.27;16.37;;;1.20;99.90;;;;;;5093871;28;20507;-83
2021/12/28 08:09:24;;;;;;;24.50;14.80;;;1.20;99.90;;;;;;5094048;28;20175;-81
2021/12/28 08:11:50;;;;;;;28.27;17.70;;;1.20;99.90;;;;;;5102810;28;20631;-81
2021/12/28 08:14:15;;;;;;;26.27;16.93;;;1.20;99.90;;;;;;5113777;28;20251;-82
2021/12/28 08:16:41;;;;;;;31.40;19.03;;;1.20;99.90;;;;;;5095843;28;20658;-81
2021/12/28 08:19:08;;;;;;;31.90;18.53;;;1.20;99.90;;;;;;5110230;28;20671;-84
2021/12/28 08:21:34;;;;;;;31.60;18.63;;;1.20;99.90;;;;;;5093681;28;20221;-84
2021/12/28 08:24:00;;;;;;;30.43;19.03;;;1.20;99.90;;;;;;5093659;28;20467;-82
2021/12/28 08:26:26;;;;;;;30.57;15.97;;;1.20;99.90;;;;;;5075441;28;20408;-82
2021/12/28 08:28:51;;;;;;;31.97;20.20;;;1.20;99.90;;;;;;5092649;28;20256;-81
2021/12/28 08:31:17;;;;;;;33.73;17.23;;;1.20;99.90;;;;;;5074222;28;20178;-81
2021/12/28 08:33:43;;;;;;;35.17;19.80;;;1.20;99.90;;;;;;5109474;28;20581;-82
2021/12/28 08:36:08;;;;;;;32.43;18.90;;;1.30;99.90;;;;;;5112530;28;20202;-82
2021/12/28 08:38:34;;;;;;;26.30;15.27;;;1.20;99.90;;;;;;5112249;28;20305;-82
2021/12/28 08:41:00;;;;;;;33.13;19.30;;;1.20;99.90;;;;;;5112900;28;20210;-81
2021/12/28 08:43:26;;;;;;;34.53;19.80;;;1.30;99.90;;;;;;5111999;28;20164;-81
2021/12/28 08:45:52;;;;;;;35.33;20.77;;;1.20;99.90;;;;;;5112987;28;20182;-82
2021/12/28 08:48:17;;;;;;;33.33;18.47;;;1.20;99.90;;;;;;5112742;28;20458;-82
2021/12/28 08:50:43;;;;;;;30.67;20.30;;;1.20;99.90;;;;;;5105236;28;20481;-81
2021/12/28 08:53:10;;;;;;;36.17;20.40;;;1.20;99.90;;;;;;5092590;28;20178;-81
2021/12/28 08:55:36;;;;;;;39.73;17.67;;;1.20;99.90;;;;;;5092255;28;20184;-82
2021/12/28 08:58:02;;;;;;;37.77;20.77;;;1.20;99.90;;;;;;5091900;28;20814;-82
2021/12/28 09:00:32;;;;;;;30.90;20.47;;;1.20;99.90;;;;;;5092414;28;20469;-83
2021/12/28 09:02:59;;;;;;;32.83;19.57;;;1.20;99.90;;;;;;5092482;28;20403;-84
2021/12/28 09:05:27;;;;;;;43.93;22.77;;;1.20;99.90;;;;;;5092050;28;20825;-82
2021/12/28 09:07:53;;;;;;;36.23;19.70;;;1.20;99.90;;;;;;5074098;28;20414;-82
2021/12/28 09:10:20;;;;;;;31.53;18.03;;;1.30;99.90;;;;;;5097332;28;20432;-82
2021/12/28 09:12:46;;;;;;;22.17;13.97;;;1.30;99.90;;;;;;5111486;28;20515;-83
2021/12/28 09:15:12;;;;;;;37.30;22.80;;;1.30;99.90;;;;;;5099934;28;20514;-84
2021/12/28 09:17:39;;;;;;;35.67;20.13;;;1.30;99.90;;;;;;5100665;28;20225;-82
2021/12/28 09:20:09;;;;;;;34.80;23.80;;;1.20;99.90;;;;;;5113170;28;20475;-82
2021/12/28 09:22:35;;;;;;;36.10;23.20;;;1.20;99.90;;;;;;5111953;28;20759;-82
2021/12/28 09:25:01;;;;;;;42.47;24.17;;;1.30;99.90;;;;;;5111156;28;20484;-80
2021/12/28 09:27:26;;;;;;;37.90;21.67;;;1.30;99.90;;;;;;5101112;28;20186;-81
2021/12/28 09:29:52;;;;;;;41.40;25.43;;;1.30;99.90;;;;;;5101725;28;20242;-80
2021/12/28 09:32:18;;;;;;;41.43;23.30;;;1.30;99.90;;;;;;5092861;28;20179;-81
2021/12/28 09:34:46;;;;;;;34.00;21.07;;;1.40;99.90;;;;;;5092801;28;20164;-81
2021/12/28 09:37:12;;;;;;;35.90;22.30;;;1.40;99.90;;;;;;5094237;28;20429;-81
2021/12/28 09:39:37;;;;;;;41.67;23.60;;;1.40;99.90;;;;;;5104705;28;20460;-81
2021/12/28 09:42:03;;;;;;;36.60;23.43;;;1.40;99.90;;;;;;5094901;28;20233;-81
2021/12/28 09:44:32;;;;;;;44.00;26.00;;;1.40;99.90;;;;;;5104019;28;20675;-80
2021/12/28 09:47:00;;;;;;;32.37;18.00;;;1.40;99.90;;;;;;5102441;28;20469;-80
2021/12/28 09:49:27;;;;;;;30.57;19.23;;;1.40;99.90;;;;;;5074582;28;20783;-81
2021/12/28 09:51:57;;;;;;;32.87;23.13;;;1.40;99.90;;;;;;5092612;28;20421;-80
2021/12/28 09:54:26;;;;;;;35.53;22.03;;;1.40;99.90;;;;;;5095047;28;20415;-81
2021/12/28 09:56:55;;;;;;;34.80;20.13;;;1.50;99.90;;;;;;5096540;28;20460;-81
2021/12/28 09:59:21;;;;;;;36.03;22.00;;;1.40;99.90;;;;;;5096000;28;20398;-83
2021/12/28 10:01:47;;;;;;;32.93;20.53;;;1.40;99.90;;;;;;5078126;28;20424;-80
2021/12/28 10:04:13;;;;;;;37.47;21.40;;;1.50;99.90;;;;;;5096361;28;20906;-79
2021/12/28 10:06:39;;;;;;;38.40;23.30;;;1.50;99.90;;;;;;5096211;28;20627;-79
2021/12/28 10:09:09;;;;;;;35.00;21.20;;;1.50;99.90;;;;;;5096024;28;20179;-86
2021/12/28 10:11:43;;;;;;;40.67;23.70;;;1.60;99.90;;;;;;5096160;28;20414;-83
2021/12/28 10:14:18;;;;;;;38.27;24.20;;;1.50;99.90;;;;;;5095711;28;20421;-81
2021/12/28 10:16:46;;;;;;;38.57;22.10;;;1.60;99.90;;;;;;5096142;28;20421;-83
2021/12/28 10:19:41;;;;;;;35.73;22.50;;;1.70;99.90;;;;;;5095994;28;20416;-86
2021/12/28 10:22:27;;;;;;;46.27;24.37;;;1.70;99.90;;;;;;5095930;28;20394;-79
2021/12/28 10:25:07;;;;;;;34.17;20.87;;;1.80;99.90;;;;;;5095970;28;20497;-80
2021/12/28 10:27:33;;;;;;;35.97;22.07;;;1.70;99.90;;;;;;5095558;28;20926;-79
2021/12/28 10:30:13;;;;;;;42.27;25.67;;;1.70;99.90;;;;;;5098373;28;20457;-81
2021/12/28 10:32:42;;;;;;;38.67;20.60;;;1.70;99.90;;;;;;5112521;28;20274;-80
2021/12/28 10:35:14;;;;;;;40.90;22.30;;;1.80;99.90;;;;;;5116111;28;20444;-80
2021/12/28 10:37:45;;;;;;;39.53;24.10;;;1.80;99.90;;;;;;5097561;28;20457;-79
2021/12/28 10:40:13;;;;;;;39.67;22.47;;;1.90;99.90;;;;;;5095533;28;20469;-83
2021/12/28 10:42:47;;;;;;;44.17;21.90;;;1.80;99.90;;;;;;5095266;28;20875;-79
2021/12/28 10:45:19;;;;;;;38.87;24.33;;;1.90;99.90;;;;;;5100209;28;20473;-80
2021/12/28 10:47:46;;;;;;;37.17;23.20;;;1.90;99.90;;;;;;5105620;28;20442;-84
2021/12/28 10:50:29;;;;;;;38.17;21.60;;;2.00;99.90;;;;;;5089815;28;20428;-80
2021/12/28 10:53:10;;;;;;;35.80;22.67;;;2.00;99.90;;;;;;5095420;28;20406;-82
2021/12/28 10:55:36;;;;;;;36.20;23.37;;;2.10;99.90;;;;;;5095459;28;20437;-80
2021/12/28 10:58:03;;;;;;;33.20;20.53;;;2.10;99.90;;;;;;5077327;28;20473;-81
2021/12/28 11:00:30;;;;;;;36.50;22.93;;;2.00;99.90;;;;;;5112936;28;20475;-81
2021/12/28 11:03:17;;;;;;;38.17;22.27;;;2.00;99.90;;;;;;5114437;28;20424;-82
2021/12/28 11:05:50;;;;;;;42.93;25.77;;;1.90;99.90;;;;;;5113086;28;20429;-82
2021/12/28 11:08:16;;;;;;;27.40;17.07;;;1.90;99.90;;;;;;5114333;28;20467;-83
2021/12/28 11:10:50;;;;;;;34.23;22.27;;;1.90;99.90;;;;;;5114374;28;20409;-82
2021/12/28 11:13:20;;;;;;;38.80;22.80;;;1.90;99.90;;;;;;5114086;28;20444;-82
2021/12/28 11:15:46;;;;;;;35.77;21.70;;;2.00;99.90;;;;;;5114434;28;20413;-82
2021/12/28 11:18:19;;;;;;;34.37;21.30;;;2.00;99.90;;;;;;5114492;28;20968;-82
2021/12/28 11:20:46;;;;;;;45.20;24.13;;;2.00;99.90;;;;;;5095878;28;20904;-91
2021/12/28 11:23:18;;;;;;;42.83;23.27;;;2.00;99.90;;;;;;5113819;28;20474;-83
2021/12/28 11:25:44;;;;;;;42.37;26.67;;;2.10;99.90;;;;;;5107948;28;20438;-83
2021/12/28 11:28:21;;;;;;;34.97;20.67;;;2.20;99.90;;;;;;5114052;28;20766;-83
2021/12/28 11:31:18;;;;;;;35.70;21.50;;;2.20;99.90;;;;;;5096443;28;20432;-83
2021/12/28 11:33:59;;;;;;;40.03;21.40;;;2.20;99.90;;;;;;5084662;28;20429;-89
2021/12/28 11:36:28;;;;;;;28.33;18.17;;;2.20;99.90;;;;;;5114200;28;20420;-83
2021/12/28 11:38:56;;;;;;;37.20;25.70;;;2.20;99.90;;;;;;5114412;28;20452;-82
2021/12/28 11:41:23;;;;;;;28.30;19.37;;;2.30;99.90;;;;;;5113825;28;20468;-82
2021/12/28 11:43:51;;;;;;;34.60;21.50;;;2.20;99.90;;;;;;5113363;28;20406;-82
2021/12/28 11:46:16;;;;;;;38.33;21.77;;;2.30;99.90;;;;;;5114227;28;20929;-82
2021/12/28 11:48:43;;;;;;;39.80;22.50;;;2.30;99.90;;;;;;5110383;28;20436;-82
2021/12/28 11:51:10;;;;;;;50.13;25.23;;;2.30;99.90;;;;;;5102538;28;20180;-83
2021/12/28 11:53:40;;;;;;;34.27;20.90;;;2.30;99.90;;;;;;5098962;28;20426;-89
2021/12/28 11:56:07;;;;;;;35.00;20.43;;;2.30;99.90;;;;;;5099860;28;20483;-80
2021/12/28 11:58:52;;;;;;;38.70;22.27;;;2.30;99.90;;;;;;5075568;28;20415;-78
2021/12/28 12:01:45;;;;;;;36.17;21.50;;;2.30;99.90;;;;;;5075616;28;20981;-82
2021/12/28 12:04:37;;;;;;;34.87;21.10;;;2.40;99.90;;;;;;5083968;28;20423;-79
2021/12/28 12:07:12;;;;;;;38.77;21.77;;;2.40;99.90;;;;;;5062700;28;20424;-79
2021/12/28 12:09:50;;;;;;;36.33;21.43;;;2.40;99.90;;;;;;5093939;28;20417;-79
2021/12/28 12:12:23;;;;;;;41.17;22.20;;;2.40;99.90;;;;;;5099413;28;20436;-80
2021/12/28 12:17:38;;;;;;;39.80;20.37;;;2.40;99.90;;;;;;5093956;28;20938;-80
2021/12/28 12:20:16;;;;;;;40.87;22.87;;;2.40;99.90;;;;;;5093184;28;20477;-79
2021/12/28 12:22:49;;;;;;;40.37;24.47;;;2.40;99.90;;;;;;5093104;28;20503;-83
2021/12/28 12:25:18;;;;;;;38.40;22.30;;;2.40;99.90;;;;;;5093132;28;20414;-81
2021/12/28 12:27:55;;;;;;;41.03;23.90;;;2.50;99.90;;;;;;5106656;28;20418;-80
2021/12/28 12:30:42;;;;;;;41.40;23.10;;;2.50;99.90;;;;;;5110350;28;20511;-81
2021/12/28 12:33:09;;;;;;;39.10;25.00;;;2.60;99.90;;;;;;5112212;28;20422;-82
2021/12/28 12:35:53;;;;;;;28.77;16.53;;;2.50;99.90;;;;;;5113272;28;20415;-82
2021/12/28 12:38:24;;;;;;;39.37;23.83;;;2.40;99.90;;;;;;5094774;28;20473;-83
2021/12/28 12:40:59;;;;;;;35.70;21.43;;;2.40;99.90;;;;;;5113257;28;20465;-83
2021/12/28 12:43:40;;;;;;;40.37;22.13;;;2.40;99.90;;;;;;5109367;28;20456;-82